Asahi Maru — JL6613 — position and weather

sailwx.info

Track history (hours):
 
Tides and Currents Weather Stations Pressure Air Temp Water Temp Dewpoint Dewpoint Depression Visibility Wind Speed Wind Dir Waves Ship Positions

Asahi Maru

Last reported at 2017-Oct-12 17:22 UTC. Time now 2017-Oct-17 05:38 UTC.
Position N 34°51' E 139°48'.

Length 105 m; draft 6.6 m.

Type: Tanker. MMSI: 431501701.

Date/timePositionNaut miles runAvg speedWind from/ knotsBaromVisibWave heightAir tempDewpointWater temp
2017-Oct-12 17:22N 34°51' E 139°48'616.5
2017-Oct-12 17:00N 34°56' E 139°44'715.0
2017-Oct-12 16:30N 35°03' E 139°42'714.3
2017-Oct-12 16:00N 35°10' E 139°45'612.2
2017-Oct-12 15:30N 35°16' E 139°46'612.8
2017-Oct-12 15:00N 35°22' E 139°42'714.2
2017-Oct-12 14:30N 35°28' E 139°47'3 6.4
2017-Oct-12 14:00N 35°31' E 139°46'0 0.0
2017-Oct-12 13:28N 35°31' E 139°46'0 0.0
2017-Oct-12 12:55N 35°31' E 139°46'0 0.0
2017-Oct-12 12:28N 35°31' E 139°46'0 0.0
2017-Oct-12 11:55N 35°31' E 139°46'0 0.0
2017-Oct-12 11:25N 35°31' E 139°46'0 0.0
2017-Oct-12 10:58N 35°31' E 139°46'0 0.0
2017-Oct-12 10:28N 35°31' E 139°46'0 0.0
2017-Oct-12 09:58N 35°31' E 139°46'0 0.0
2017-Oct-12 09:28N 35°31' E 139°46'0 0.0
2017-Oct-12 08:55N 35°31' E 139°46'0 0.0
2017-Oct-12 08:25N 35°31' E 139°46'0 0.0
2017-Oct-12 07:52N 35°31' E 139°46'0 0.0
2017-Oct-12 07:25N 35°31' E 139°46'0 0.0
2017-Oct-12 06:58N 35°31' E 139°46'0 0.0
2017-Oct-12 06:25N 35°31' E 139°46'0 0.0
2017-Oct-12 05:58N 35°31' E 139°46'2 4.8
2017-Oct-12 05:30N 35°30' E 139°44'4 7.3
2017-Oct-12 05:00N 35°26' E 139°44'2 4.3
2017-Oct-12 04:30N 35°24' E 139°44'0 0.0
2017-Oct-12 03:57N 35°24' E 139°44'0 0.5
2017-Oct-12 03:30N 35°24' E 139°44'4 7.5
2017-Oct-12 03:00N 35°24' E 139°40'0 0.3
2017-Oct-12 02:28N 35°24' E 139°40'0 0.0
2017-Oct-12 01:58N 35°24' E 139°40'0 0.0
2017-Oct-12 01:28N 35°24' E 139°40'0 0.1
2017-Oct-11 23:03N 35°24' E 139°40'0 3.1
2017-Oct-11 23:00N 35°24' E 139°40'4 7.6
2017-Oct-11 22:31N 35°22' E 139°44'0 0.0
2017-Oct-11 18:29N 35°22' E 139°44'4 8.6
2017-Oct-11 17:59N 35°18' E 139°44'612.5
2017-Oct-11 17:30N 35°13' E 139°47'714.9
2017-Oct-11 17:00N 35°05' E 139°45'243 5.3
2017-Oct-09 18:40N 34°03' E 134°59'315.0
2017-Oct-09 18:28N 34°06' E 134°59'715.5
2017-Oct-09 18:00N 34°13' E 134°59'1415.3
2017-Oct-09 17:06N 34°26' E 135°01'214.7
2017-Oct-09 17:00N 34°28' E 135°01'714.3
2017-Oct-09 16:30N 34°35' E 135°03'611.8
2017-Oct-09 16:00N 34°36' E 134°56'1 0.0
2017-Oct-08 07:07N 34°36' E 134°54'213.1
2017-Oct-08 06:58N 34°37' E 134°57'510.8
2017-Oct-08 06:30N 34°36' E 135°03'5 9.8
2017-Oct-08 06:00N 34°38' E 135°08'1 1.2
2017-Oct-08 05:29N 34°39' E 135°08'0 0.0
2017-Oct-08 04:59N 34°39' E 135°08'0 0.0
2017-Oct-08 04:23N 34°39' E 135°08'0 0.0
2017-Oct-08 03:35N 34°39' E 135°08'0 0.0
2017-Oct-08 03:29N 34°39' E 135°08'0 0.0
2017-Oct-08 02:59N 34°39' E 135°08'0 0.0
2017-Oct-08 02:29N 34°39' E 135°08'0 0.0
2017-Oct-08 01:59N 34°39' E 135°08'1 2.3
2017-Oct-08 01:31N 34°37' E 135°09'0 0.2
2017-Oct-08 00:56N 34°37' E 135°08'0 0.0
2017-Oct-08 00:26N 34°37' E 135°08'0 0.0
2017-Oct-07 23:56N 34°37' E 135°08'0 0.0
2017-Oct-07 23:20N 34°37' E 135°08'0 0.0
2017-Oct-07 22:56N 34°37' E 135°08'0 0.0
2017-Oct-07 22:26N 34°37' E 135°08'0 0.0
2017-Oct-07 21:56N 34°37' E 135°08'0 0.0
2017-Oct-07 21:26N 34°37' E 135°08'0 0.0
2017-Oct-07 20:56N 34°37' E 135°08'0 0.0
2017-Oct-07 20:26N 34°37' E 135°08'0 0.0
2017-Oct-07 19:56N 34°37' E 135°08'0 0.0
2017-Oct-07 19:26N 34°37' E 135°08'0 0.1
2017-Oct-07 18:56N 34°37' E 135°08'0 0.0
2017-Oct-07 18:26N 34°37' E 135°08'0 0.1
2017-Oct-07 17:56N 34°37' E 135°09'0 0.0
2017-Oct-07 17:14N 34°37' E 135°09'0 0.0
2017-Oct-07 16:44N 34°37' E 135°09'0 0.0
2017-Oct-07 16:26N 34°37' E 135°09'0 0.1
2017-Oct-07 15:50N 34°37' E 135°08'0 0.0
2017-Oct-07 15:26N 34°37' E 135°08'0 0.0
2017-Oct-07 14:56N 34°37' E 135°08'0 0.1
2017-Oct-07 14:26N 34°37' E 135°08'0 0.0
2017-Oct-07 13:56N 34°37' E 135°08'1 2.6
2017-Oct-07 13:30N 34°37' E 135°07'510.1
2017-Oct-07 13:00N 34°37' E 135°01'4 0.2
2017-Oct-06 10:22N 34°37' E 134°56'616.6
2017-Oct-06 10:00N 34°36' E 135°03'815.7
2017-Oct-06 09:30N 34°35' E 135°13'714.7
2017-Oct-06 09:00N 34°33' E 135°21'3 6.2
2017-Oct-06 08:30N 34°32' E 135°25'0 0.0
2017-Oct-06 07:00N 34°32' E 135°25'0 0.0
2017-Oct-05 23:13N 34°32' E 135°25'0 0.6
2017-Oct-05 22:58N 34°32' E 135°24'3 6.2
2017-Oct-05 22:28N 34°33' E 135°21'2 4.2
2017-Oct-05 21:57N 34°32' E 135°18'0 0.0
2017-Oct-05 21:27N 34°32' E 135°18'0 0.0
2017-Oct-05 20:57N 34°32' E 135°18'0 0.1
2017-Oct-05 20:21N 34°32' E 135°18'0 0.1
2017-Oct-05 19:57N 34°32' E 135°18'0 0.0
2017-Oct-05 19:21N 34°32' E 135°18'0 0.1
2017-Oct-05 18:57N 34°32' E 135°18'0 0.0
2017-Oct-05 18:27N 34°32' E 135°18'0 0.0
2017-Oct-05 17:51N 34°32' E 135°18'0 0.1
2017-Oct-05 17:21N 34°32' E 135°18'0 0.1
2017-Oct-05 16:57N 34°32' E 135°18'0 0.0
2017-Oct-05 15:27N 34°32' E 135°18'0 0.0
2017-Oct-05 14:57N 34°32' E 135°18'0 0.1
2017-Oct-05 14:15N 34°32' E 135°18'0 0.0
2017-Oct-05 13:57N 34°32' E 135°18'0 0.0
2017-Oct-05 13:27N 34°32' E 135°18'0 0.0
2017-Oct-05 12:57N 34°32' E 135°18'1 1.3
2017-Oct-05 12:30N 34°32' E 135°18'612.3
2017-Oct-05 12:00N 34°34' E 135°11'612.8
2017-Oct-05 11:30N 34°36' E 135°03'5 9.7
2017-Oct-05 10:59N 34°36' E 134°57'  
Track history (hours):
 
Tides and Currents Weather Stations Pressure Air Temp Water Temp Dewpoint Dewpoint Depression Visibility Wind Speed Wind Dir Waves Ship Positions

Asahi Maru

Last reported at 2017-Oct-12 17:22 UTC. Time now 2017-Oct-17 05:38 UTC.
Position N 34°51' E 139°48'.

Length 105 m; draft 6.6 m.

Type: Tanker. MMSI: 431501701.

Date/timePositionNaut miles runAvg speedWind from/ knotsBaromVisibWave heightAir tempDewpointWater temp
2017-Oct-12 17:22N 34°51' E 139°48'616.5
2017-Oct-12 17:00N 34°56' E 139°44'715.0
2017-Oct-12 16:30N 35°03' E 139°42'714.3
2017-Oct-12 16:00N 35°10' E 139°45'612.2
2017-Oct-12 15:30N 35°16' E 139°46'612.8
2017-Oct-12 15:00N 35°22' E 139°42'714.2
2017-Oct-12 14:30N 35°28' E 139°47'3 6.4
2017-Oct-12 14:00N 35°31' E 139°46'0 0.0
2017-Oct-12 13:28N 35°31' E 139°46'0 0.0
2017-Oct-12 12:55N 35°31' E 139°46'0 0.0
2017-Oct-12 12:28N 35°31' E 139°46'0 0.0
2017-Oct-12 11:55N 35°31' E 139°46'0 0.0
2017-Oct-12 11:25N 35°31' E 139°46'0 0.0
2017-Oct-12 10:58N 35°31' E 139°46'0 0.0
2017-Oct-12 10:28N 35°31' E 139°46'0 0.0
2017-Oct-12 09:58N 35°31' E 139°46'0 0.0
2017-Oct-12 09:28N 35°31' E 139°46'0 0.0
2017-Oct-12 08:55N 35°31' E 139°46'0 0.0
2017-Oct-12 08:25N 35°31' E 139°46'0 0.0
2017-Oct-12 07:52N 35°31' E 139°46'0 0.0
2017-Oct-12 07:25N 35°31' E 139°46'0 0.0
2017-Oct-12 06:58N 35°31' E 139°46'0 0.0
2017-Oct-12 06:25N 35°31' E 139°46'0 0.0
2017-Oct-12 05:58N 35°31' E 139°46'2 4.8
2017-Oct-12 05:30N 35°30' E 139°44'4 7.3
2017-Oct-12 05:00N 35°26' E 139°44'2 4.3
2017-Oct-12 04:30N 35°24' E 139°44'0 0.0
2017-Oct-12 03:57N 35°24' E 139°44'0 0.5
2017-Oct-12 03:30N 35°24' E 139°44'4 7.5
2017-Oct-12 03:00N 35°24' E 139°40'0 0.3
2017-Oct-12 02:28N 35°24' E 139°40'0 0.0
2017-Oct-12 01:58N 35°24' E 139°40'0 0.0
2017-Oct-12 01:28N 35°24' E 139°40'0 0.1
2017-Oct-11 23:03N 35°24' E 139°40'0 3.1
2017-Oct-11 23:00N 35°24' E 139°40'4 7.6
2017-Oct-11 22:31N 35°22' E 139°44'0 0.0
2017-Oct-11 18:29N 35°22' E 139°44'4 8.6
2017-Oct-11 17:59N 35°18' E 139°44'612.5
2017-Oct-11 17:30N 35°13' E 139°47'714.9
2017-Oct-11 17:00N 35°05' E 139°45'243 5.3
2017-Oct-09 18:40N 34°03' E 134°59'315.0
2017-Oct-09 18:28N 34°06' E 134°59'715.5
2017-Oct-09 18:00N 34°13' E 134°59'1415.3
2017-Oct-09 17:06N 34°26' E 135°01'214.7
2017-Oct-09 17:00N 34°28' E 135°01'714.3
2017-Oct-09 16:30N 34°35' E 135°03'611.8
2017-Oct-09 16:00N 34°36' E 134°56'1 0.0
2017-Oct-08 07:07N 34°36' E 134°54'213.1
2017-Oct-08 06:58N 34°37' E 134°57'510.8
2017-Oct-08 06:30N 34°36' E 135°03'5 9.8
2017-Oct-08 06:00N 34°38' E 135°08'1 1.2
2017-Oct-08 05:29N 34°39' E 135°08'0 0.0
2017-Oct-08 04:59N 34°39' E 135°08'0 0.0
2017-Oct-08 04:23N 34°39' E 135°08'0 0.0
2017-Oct-08 03:35N 34°39' E 135°08'0 0.0
2017-Oct-08 03:29N 34°39' E 135°08'0 0.0
2017-Oct-08 02:59N 34°39' E 135°08'0 0.0
2017-Oct-08 02:29N 34°39' E 135°08'0 0.0
2017-Oct-08 01:59N 34°39' E 135°08'1 2.3
2017-Oct-08 01:31N 34°37' E 135°09'0 0.2
2017-Oct-08 00:56N 34°37' E 135°08'0 0.0
2017-Oct-08 00:26N 34°37' E 135°08'0 0.0
2017-Oct-07 23:56N 34°37' E 135°08'0 0.0
2017-Oct-07 23:20N 34°37' E 135°08'0 0.0
2017-Oct-07 22:56N 34°37' E 135°08'0 0.0
2017-Oct-07 22:26N 34°37' E 135°08'0 0.0
2017-Oct-07 21:56N 34°37' E 135°08'0 0.0
2017-Oct-07 21:26N 34°37' E 135°08'0 0.0
2017-Oct-07 20:56N 34°37' E 135°08'0 0.0
2017-Oct-07 20:26N 34°37' E 135°08'0 0.0
2017-Oct-07 19:56N 34°37' E 135°08'0 0.0
2017-Oct-07 19:26N 34°37' E 135°08'0 0.1
2017-Oct-07 18:56N 34°37' E 135°08'0 0.0
2017-Oct-07 18:26N 34°37' E 135°08'0 0.1
2017-Oct-07 17:56N 34°37' E 135°09'0 0.0
2017-Oct-07 17:14N 34°37' E 135°09'0 0.0
2017-Oct-07 16:44N 34°37' E 135°09'0 0.0
2017-Oct-07 16:26N 34°37' E 135°09'0 0.1
2017-Oct-07 15:50N 34°37' E 135°08'0 0.0
2017-Oct-07 15:26N 34°37' E 135°08'0 0.0
2017-Oct-07 14:56N 34°37' E 135°08'0 0.1
2017-Oct-07 14:26N 34°37' E 135°08'0 0.0
2017-Oct-07 13:56N 34°37' E 135°08'1 2.6
2017-Oct-07 13:30N 34°37' E 135°07'510.1
2017-Oct-07 13:00N 34°37' E 135°01'4 0.2
2017-Oct-06 10:22N 34°37' E 134°56'616.6
2017-Oct-06 10:00N 34°36' E 135°03'815.7
2017-Oct-06 09:30N 34°35' E 135°13'714.7
2017-Oct-06 09:00N 34°33' E 135°21'3 6.2
2017-Oct-06 08:30N 34°32' E 135°25'0 0.0
2017-Oct-06 07:00N 34°32' E 135°25'0 0.0
2017-Oct-05 23:13N 34°32' E 135°25'0 0.6
2017-Oct-05 22:58N 34°32' E 135°24'3 6.2
2017-Oct-05 22:28N 34°33' E 135°21'2 4.2
2017-Oct-05 21:57N 34°32' E 135°18'0 0.0
2017-Oct-05 21:27N 34°32' E 135°18'0 0.0
2017-Oct-05 20:57N 34°32' E 135°18'0 0.1
2017-Oct-05 20:21N 34°32' E 135°18'0 0.1
2017-Oct-05 19:57N 34°32' E 135°18'0 0.0
2017-Oct-05 19:21N 34°32' E 135°18'0 0.1
2017-Oct-05 18:57N 34°32' E 135°18'0 0.0
2017-Oct-05 18:27N 34°32' E 135°18'0 0.0
2017-Oct-05 17:51N 34°32' E 135°18'0 0.1
2017-Oct-05 17:21N 34°32' E 135°18'0 0.1
2017-Oct-05 16:57N 34°32' E 135°18'0 0.0
2017-Oct-05 15:27N 34°32' E 135°18'0 0.0
2017-Oct-05 14:57N 34°32' E 135°18'0 0.1
2017-Oct-05 14:15N 34°32' E 135°18'0 0.0
2017-Oct-05 13:57N 34°32' E 135°18'0 0.0
2017-Oct-05 13:27N 34°32' E 135°18'0 0.0
2017-Oct-05 12:57N 34°32' E 135°18'1 1.3
2017-Oct-05 12:30N 34°32' E 135°18'612.3
2017-Oct-05 12:00N 34°34' E 135°11'612.8
2017-Oct-05 11:30N 34°36' E 135°03'5 9.7
2017-Oct-05 10:59N 34°36' E 134°57'  

Dump ship's entire track history